sensor_id;sensor_type;location;lat;lon;timestamp;P1;durP1;ratioP1;P2;durP2;ratioP2
25199;SDS011;33094;48.782;9.162;2023-11-19T00:02:18;4.07;;;1.90;;
25199;SDS011;33094;48.782;9.162;2023-11-19T00:04:44;2.00;;;1.77;;
25199;SDS011;33094;48.782;9.162;2023-11-19T00:07:09;4.07;;;2.65;;
25199;SDS011;33094;48.782;9.162;2023-11-19T00:09:37;4.00;;;2.53;;
25199;SDS011;33094;48.782;9.162;2023-11-19T00:12:06;7.10;;;2.60;;
25199;SDS011;33094;48.782;9.162;2023-11-19T00:14:33;2.33;;;2.10;;
25199;SDS011;33094;48.782;9.162;2023-11-19T00:16:59;2.75;;;1.95;;
25199;SDS011;33094;48.782;9.162;2023-11-19T00:19:25;6.15;;;2.17;;
25199;SDS011;33094;48.782;9.162;2023-11-19T00:21:54;3.20;;;1.88;;
25199;SDS011;33094;48.782;9.162;2023-11-19T00:24:19;2.40;;;1.95;;
25199;SDS011;33094;48.782;9.162;2023-11-19T00:26:45;7.53;;;3.67;;
25199;SDS011;33094;48.782;9.162;2023-11-19T00:29:11;4.13;;;2.15;;
25199;SDS011;33094;48.782;9.162;2023-11-19T00:31:39;3.88;;;2.08;;
25199;SDS011;33094;48.782;9.162;2023-11-19T00:34:04;3.15;;;2.08;;
25199;SDS011;33094;48.782;9.162;2023-11-19T00:36:31;2.42;;;2.15;;
25199;SDS011;33094;48.782;9.162;2023-11-19T00:38:56;4.00;;;2.00;;
25199;SDS011;33094;48.782;9.162;2023-11-19T00:41:23;3.53;;;1.70;;
25199;SDS011;33094;48.782;9.162;2023-11-19T00:43:48;4.18;;;1.75;;
25199;SDS011;33094;48.782;9.162;2023-11-19T00:46:14;3.92;;;1.55;;
25199;SDS011;33094;48.782;9.162;2023-11-19T00:48:40;2.80;;;1.85;;
25199;SDS011;33094;48.782;9.162;2023-11-19T00:51:05;2.25;;;1.88;;
25199;SDS011;33094;48.782;9.162;2023-11-19T00:53:31;2.30;;;1.42;;
25199;SDS011;33094;48.782;9.162;2023-11-19T00:55:58;2.70;;;2.13;;
25199;SDS011;33094;48.782;9.162;2023-11-19T00:58:24;4.05;;;2.25;;
25199;SDS011;33094;48.782;9.162;2023-11-19T01:00:50;5.32;;;2.20;;
25199;SDS011;33094;48.782;9.162;2023-11-19T01:03:16;3.00;;;2.00;;
25199;SDS011;33094;48.782;9.162;2023-11-19T01:05:41;2.58;;;1.95;;
25199;SDS011;33094;48.782;9.162;2023-11-19T01:08:07;4.78;;;2.38;;
25199;SDS011;33094;48.782;9.162;2023-11-19T01:10:33;2.17;;;1.75;;
25199;SDS011;33094;48.782;9.162;2023-11-19T01:12:59;4.20;;;2.25;;
25199;SDS011;33094;48.782;9.162;2023-11-19T01:15:25;4.97;;;2.63;;
25199;SDS011;33094;48.782;9.162;2023-11-19T01:17:51;4.03;;;2.10;;
25199;SDS011;33094;48.782;9.162;2023-11-19T01:20:16;2.67;;;1.95;;
25199;SDS011;33094;48.782;9.162;2023-11-19T01:22:42;4.28;;;2.25;;
25199;SDS011;33094;48.782;9.162;2023-11-19T01:25:08;4.25;;;2.25;;
25199;SDS011;33094;48.782;9.162;2023-11-19T01:27:34;3.72;;;2.15;;
25199;SDS011;33094;48.782;9.162;2023-11-19T01:30:00;3.22;;;2.03;;
25199;SDS011;33094;48.782;9.162;2023-11-19T01:32:28;4.13;;;2.58;;
25199;SDS011;33094;48.782;9.162;2023-11-19T01:34:54;3.00;;;2.03;;
25199;SDS011;33094;48.782;9.162;2023-11-19T01:37:21;4.45;;;2.15;;
25199;SDS011;33094;48.782;9.162;2023-11-19T01:39:46;6.63;;;2.15;;
25199;SDS011;33094;48.782;9.162;2023-11-19T01:42:12;3.97;;;2.90;;
25199;SDS011;33094;48.782;9.162;2023-11-19T01:44:38;4.50;;;2.70;;
25199;SDS011;33094;48.782;9.162;2023-11-19T01:47:03;7.30;;;3.38;;
25199;SDS011;33094;48.782;9.162;2023-11-19T01:49:30;8.10;;;2.65;;
25199;SDS011;33094;48.782;9.162;2023-11-19T01:52:00;3.88;;;2.88;;
25199;SDS011;33094;48.782;9.162;2023-11-19T01:54:26;4.43;;;2.72;;
25199;SDS011;33094;48.782;9.162;2023-11-19T01:56:53;6.40;;;2.95;;
25199;SDS011;33094;48.782;9.162;2023-11-19T01:59:22;4.78;;;2.67;;
25199;SDS011;33094;48.782;9.162;2023-11-19T02:01:51;4.75;;;2.50;;
25199;SDS011;33094;48.782;9.162;2023-11-19T02:04:20;8.18;;;2.90;;
25199;SDS011;33094;48.782;9.162;2023-11-19T02:06:46;4.65;;;2.70;;
25199;SDS011;33094;48.782;9.162;2023-11-19T02:09:17;4.35;;;2.90;;
25199;SDS011;33094;48.782;9.162;2023-11-19T02:11:44;3.55;;;1.85;;
25199;SDS011;33094;48.782;9.162;2023-11-19T02:14:10;2.60;;;1.60;;
25199;SDS011;33094;48.782;9.162;2023-11-19T02:16:36;1.63;;;1.45;;
25199;SDS011;33094;48.782;9.162;2023-11-19T02:19:01;4.50;;;2.55;;
25199;SDS011;33094;48.782;9.162;2023-11-19T02:21:28;6.43;;;2.05;;
25199;SDS011;33094;48.782;9.162;2023-11-19T02:23:54;2.17;;;1.63;;
25199;SDS011;33094;48.782;9.162;2023-11-19T02:26:26;5.00;;;1.90;;
25199;SDS011;33094;48.782;9.162;2023-11-19T02:28:58;1.85;;;1.10;;
25199;SDS011;33094;48.782;9.162;2023-11-19T02:31:24;0.73;;;0.65;;
25199;SDS011;33094;48.782;9.162;2023-11-19T02:33:52;1.00;;;1.00;;
25199;SDS011;33094;48.782;9.162;2023-11-19T02:36:18;2.38;;;1.63;;
25199;SDS011;33094;48.782;9.162;2023-11-19T02:38:43;3.80;;;2.05;;
25199;SDS011;33094;48.782;9.162;2023-11-19T02:41:09;3.22;;;1.98;;
25199;SDS011;33094;48.782;9.162;2023-11-19T02:43:36;2.05;;;1.63;;
25199;SDS011;33094;48.782;9.162;2023-11-19T02:46:04;3.10;;;2.08;;
25199;SDS011;33094;48.782;9.162;2023-11-19T02:48:33;3.58;;;1.98;;
25199;SDS011;33094;48.782;9.162;2023-11-19T02:51:02;2.67;;;1.88;;
25199;SDS011;33094;48.782;9.162;2023-11-19T02:53:29;3.55;;;2.08;;
25199;SDS011;33094;48.782;9.162;2023-11-19T02:55:55;5.60;;;2.47;;
25199;SDS011;33094;48.782;9.162;2023-11-19T02:58:31;3.05;;;1.95;;
25199;SDS011;33094;48.782;9.162;2023-11-19T03:00:57;2.25;;;1.60;;
25199;SDS011;33094;48.782;9.162;2023-11-19T03:05:55;1.70;;;1.30;;
25199;SDS011;33094;48.782;9.162;2023-11-19T03:08:21;2.88;;;1.60;;
25199;SDS011;33094;48.782;9.162;2023-11-19T03:10:47;3.08;;;1.65;;
25199;SDS011;33094;48.782;9.162;2023-11-19T03:13:14;2.45;;;1.45;;
25199;SDS011;33094;48.782;9.162;2023-11-19T03:15:41;0.98;;;0.80;;
25199;SDS011;33094;48.782;9.162;2023-11-19T03:18:07;4.28;;;1.33;;
25199;SDS011;33094;48.782;9.162;2023-11-19T03:20:33;3.80;;;1.38;;
25199;SDS011;33094;48.782;9.162;2023-11-19T03:22:58;2.45;;;1.20;;
25199;SDS011;33094;48.782;9.162;2023-11-19T03:25:25;1.85;;;1.02;;
25199;SDS011;33094;48.782;9.162;2023-11-19T03:27:58;0.77;;;0.57;;
25199;SDS011;33094;48.782;9.162;2023-11-19T03:30:26;2.35;;;1.42;;
25199;SDS011;33094;48.782;9.162;2023-11-19T03:35:19;1.23;;;0.93;;
25199;SDS011;33094;48.782;9.162;2023-11-19T03:37:44;1.10;;;1.00;;
25199;SDS011;33094;48.782;9.162;2023-11-19T03:40:10;1.13;;;0.70;;
25199;SDS011;33094;48.782;9.162;2023-11-19T03:42:36;0.47;;;0.40;;
25199;SDS011;33094;48.782;9.162;2023-11-19T03:45:01;2.63;;;0.47;;
25199;SDS011;33094;48.782;9.162;2023-11-19T03:47:29;1.38;;;0.85;;
25199;SDS011;33094;48.782;9.162;2023-11-19T03:49:54;0.13;;;0.13;;
25199;SDS011;33094;48.782;9.162;2023-11-19T03:52:20;3.47;;;0.50;;
25199;SDS011;33094;48.782;9.162;2023-11-19T03:54:45;0.40;;;0.40;;
25199;SDS011;33094;48.782;9.162;2023-11-19T03:57:12;2.50;;;0.75;;
25199;SDS011;33094;48.782;9.162;2023-11-19T03:59:38;0.40;;;0.30;;
25199;SDS011;33094;48.782;9.162;2023-11-19T04:02:04;0.43;;;0.43;;
25199;SDS011;33094;48.782;9.162;2023-11-19T04:04:29;0.30;;;0.30;;
25199;SDS011;33094;48.782;9.162;2023-11-19T04:06:55;0.35;;;0.35;;
25199;SDS011;33094;48.782;9.162;2023-11-19T04:09:21;1.33;;;1.23;;
25199;SDS011;33094;48.782;9.162;2023-11-19T04:11:47;0.40;;;0.32;;
25199;SDS011;33094;48.782;9.162;2023-11-19T04:14:13;2.78;;;0.40;;
25199;SDS011;33094;48.782;9.162;2023-11-19T04:16:39;1.17;;;0.60;;
25199;SDS011;33094;48.782;9.162;2023-11-19T04:19:05;0.63;;;0.40;;
25199;SDS011;33094;48.782;9.162;2023-11-19T04:21:31;0.40;;;0.40;;
25199;SDS011;33094;48.782;9.162;2023-11-19T04:23:57;0.50;;;0.40;;
25199;SDS011;33094;48.782;9.162;2023-11-19T04:26:23;0.20;;;0.20;;
25199;SDS011;33094;48.782;9.162;2023-11-19T04:28:49;0.50;;;0.20;;
25199;SDS011;33094;48.782;9.162;2023-11-19T04:31:15;0.35;;;0.35;;
25199;SDS011;33094;48.782;9.162;2023-11-19T04:33:44;0.03;;;0.03;;
25199;SDS011;33094;48.782;9.162;2023-11-19T04:36:10;0.20;;;0.20;;
25199;SDS011;33094;48.782;9.162;2023-11-19T04:38:35;0.17;;;0.17;;
25199;SDS011;33094;48.782;9.162;2023-11-19T04:41:03;0.55;;;0.50;;
25199;SDS011;33094;48.782;9.162;2023-11-19T04:45:56;0.10;;;0.10;;
25199;SDS011;33094;48.782;9.162;2023-11-19T04:48:22;0.52;;;0.10;;
25199;SDS011;33094;48.782;9.162;2023-11-19T04:50:48;0.32;;;0.22;;
25199;SDS011;33094;48.782;9.162;2023-11-19T04:53:16;0.47;;;0.20;;
25199;SDS011;33094;48.782;9.162;2023-11-19T04:55:42;0.10;;;0.10;;
25199;SDS011;33094;48.782;9.162;2023-11-19T04:58:08;0.32;;;0.20;;
25199;SDS011;33094;48.782;9.162;2023-11-19T05:00:34;0.08;;;0.08;;
25199;SDS011;33094;48.782;9.162;2023-11-19T05:02:59;0.20;;;0.10;;
25199;SDS011;33094;48.782;9.162;2023-11-19T05:05:25;0.10;;;0.10;;
25199;SDS011;33094;48.782;9.162;2023-11-19T05:07:52;0.30;;;0.20;;
25199;SDS011;33094;48.782;9.162;2023-11-19T05:10:17;0.05;;;0.03;;
25199;SDS011;33094;48.782;9.162;2023-11-19T05:12:43;0.05;;;0.05;;
25199;SDS011;33094;48.782;9.162;2023-11-19T05:15:10;0.00;;;0.00;;
25199;SDS011;33094;48.782;9.162;2023-11-19T05:17:36;0.43;;;0.20;;
25199;SDS011;33094;48.782;9.162;2023-11-19T05:20:02;0.15;;;0.13;;
25199;SDS011;33094;48.782;9.162;2023-11-19T05:22:29;0.35;;;0.20;;
25199;SDS011;33094;48.782;9.162;2023-11-19T05:24:55;0.00;;;0.00;;
25199;SDS011;33094;48.782;9.162;2023-11-19T05:27:21;0.00;;;0.00;;
25199;SDS011;33094;48.782;9.162;2023-11-19T05:29:48;2.78;;;0.20;;
25199;SDS011;33094;48.782;9.162;2023-11-19T05:32:14;0.10;;;0.10;;
25199;SDS011;33094;48.782;9.162;2023-11-19T05:34:40;0.28;;;0.20;;
25199;SDS011;33094;48.782;9.162;2023-11-19T05:37:05;0.70;;;0.15;;
25199;SDS011;33094;48.782;9.162;2023-11-19T05:39:31;0.10;;;0.10;;
25199;SDS011;33094;48.782;9.162;2023-11-19T05:41:57;0.20;;;0.20;;
25199;SDS011;33094;48.782;9.162;2023-11-19T05:44:24;0.10;;;0.10;;
25199;SDS011;33094;48.782;9.162;2023-11-19T05:46:49;0.10;;;0.10;;
25199;SDS011;33094;48.782;9.162;2023-11-19T05:49:15;0.38;;;0.30;;
25199;SDS011;33094;48.782;9.162;2023-11-19T05:51:40;0.03;;;0.03;;
25199;SDS011;33094;48.782;9.162;2023-11-19T05:54:07;0.10;;;0.10;;
25199;SDS011;33094;48.782;9.162;2023-11-19T05:58:59;0.10;;;0.10;;
25199;SDS011;33094;48.782;9.162;2023-11-19T06:01:39;0.55;;;0.17;;
25199;SDS011;33094;48.782;9.162;2023-11-19T06:04:06;0.00;;;0.00;;
25199;SDS011;33094;48.782;9.162;2023-11-19T06:06:32;0.10;;;0.10;;
25199;SDS011;33094;48.782;9.162;2023-11-19T06:08:58;0.10;;;0.10;;
25199;SDS011;33094;48.782;9.162;2023-11-19T06:11:23;0.00;;;0.00;;
25199;SDS011;33094;48.782;9.162;2023-11-19T06:13:52;0.15;;;0.10;;
25199;SDS011;33094;48.782;9.162;2023-11-19T06:16:18;0.05;;;0.05;;
25199;SDS011;33094;48.782;9.162;2023-11-19T06:18:43;0.20;;;0.20;;
25199;SDS011;33094;48.782;9.162;2023-11-19T06:21:09;0.13;;;0.10;;
25199;SDS011;33094;48.782;9.162;2023-11-19T06:23:35;0.03;;;0.03;;
25199;SDS011;33094;48.782;9.162;2023-11-19T06:26:02;0.10;;;0.10;;
25199;SDS011;33094;48.782;9.162;2023-11-19T06:28:27;0.17;;;0.17;;
25199;SDS011;33094;48.782;9.162;2023-11-19T06:30:53;0.32;;;0.20;;
25199;SDS011;33094;48.782;9.162;2023-11-19T06:33:19;0.20;;;0.20;;
25199;SDS011;33094;48.782;9.162;2023-11-19T06:35:45;0.38;;;0.17;;
25199;SDS011;33094;48.782;9.162;2023-11-19T06:38:10;0.00;;;0.00;;
25199;SDS011;33094;48.782;9.162;2023-11-19T06:40:36;0.17;;;0.10;;
25199;SDS011;33094;48.782;9.162;2023-11-19T06:43:02;0.55;;;0.00;;
25199;SDS011;33094;48.782;9.162;2023-11-19T06:45:33;0.80;;;0.20;;
25199;SDS011;33094;48.782;9.162;2023-11-19T06:48:01;0.13;;;0.13;;
25199;SDS011;33094;48.782;9.162;2023-11-19T06:50:28;0.15;;;0.15;;
25199;SDS011;33094;48.782;9.162;2023-11-19T06:52:54;0.00;;;0.00;;
25199;SDS011;33094;48.782;9.162;2023-11-19T06:55:19;0.90;;;0.10;;
25199;SDS011;33094;48.782;9.162;2023-11-19T06:57:45;0.20;;;0.20;;
25199;SDS011;33094;48.782;9.162;2023-11-19T07:00:11;0.30;;;0.22;;
25199;SDS011;33094;48.782;9.162;2023-11-19T07:02:37;0.70;;;0.37;;
25199;SDS011;33094;48.782;9.162;2023-11-19T07:05:02;0.30;;;0.17;;
25199;SDS011;33094;48.782;9.162;2023-11-19T07:07:30;0.60;;;0.20;;
25199;SDS011;33094;48.782;9.162;2023-11-19T07:09:57;0.28;;;0.25;;
25199;SDS011;33094;48.782;9.162;2023-11-19T07:12:22;0.95;;;0.35;;
25199;SDS011;33094;48.782;9.162;2023-11-19T07:14:48;0.30;;;0.30;;
25199;SDS011;33094;48.782;9.162;2023-11-19T07:17:13;0.30;;;0.30;;
25199;SDS011;33094;48.782;9.162;2023-11-19T07:19:40;0.20;;;0.20;;
25199;SDS011;33094;48.782;9.162;2023-11-19T07:22:06;0.25;;;0.20;;
25199;SDS011;33094;48.782;9.162;2023-11-19T07:24:32;0.30;;;0.30;;
25199;SDS011;33094;48.782;9.162;2023-11-19T07:26:58;0.25;;;0.20;;
25199;SDS011;33094;48.782;9.162;2023-11-19T07:29:23;0.55;;;0.30;;
25199;SDS011;33094;48.782;9.162;2023-11-19T07:31:49;0.15;;;0.15;;
25199;SDS011;33094;48.782;9.162;2023-11-19T07:34:14;0.82;;;0.32;;
25199;SDS011;33094;48.782;9.162;2023-11-19T07:36:40;0.47;;;0.40;;
25199;SDS011;33094;48.782;9.162;2023-11-19T07:39:06;0.40;;;0.20;;
25199;SDS011;33094;48.782;9.162;2023-11-19T07:41:33;0.10;;;0.10;;
25199;SDS011;33094;48.782;9.162;2023-11-19T07:43:59;0.38;;;0.38;;
25199;SDS011;33094;48.782;9.162;2023-11-19T07:46:25;0.20;;;0.20;;
25199;SDS011;33094;48.782;9.162;2023-11-19T07:48:52;0.43;;;0.30;;
25199;SDS011;33094;48.782;9.162;2023-11-19T07:51:18;0.63;;;0.30;;
25199;SDS011;33094;48.782;9.162;2023-11-19T07:53:44;0.20;;;0.20;;
25199;SDS011;33094;48.782;9.162;2023-11-19T07:56:10;0.30;;;0.30;;
25199;SDS011;33094;48.782;9.162;2023-11-19T07:58:36;0.30;;;0.30;;
25199;SDS011;33094;48.782;9.162;2023-11-19T08:01:01;0.43;;;0.32;;
25199;SDS011;33094;48.782;9.162;2023-11-19T08:03:27;0.30;;;0.30;;
25199;SDS011;33094;48.782;9.162;2023-11-19T08:05:57;0.73;;;0.40;;
25199;SDS011;33094;48.782;9.162;2023-11-19T08:08:23;0.32;;;0.22;;
25199;SDS011;33094;48.782;9.162;2023-11-19T08:10:49;0.65;;;0.28;;
25199;SDS011;33094;48.782;9.162;2023-11-19T08:13:16;0.85;;;0.20;;
25199;SDS011;33094;48.782;9.162;2023-11-19T08:15:42;0.28;;;0.20;;
25199;SDS011;33094;48.782;9.162;2023-11-19T08:18:08;0.30;;;0.30;;
25199;SDS011;33094;48.782;9.162;2023-11-19T08:20:34;0.75;;;0.30;;
25199;SDS011;33094;48.782;9.162;2023-11-19T08:23:02;0.20;;;0.20;;
25199;SDS011;33094;48.782;9.162;2023-11-19T08:25:31;0.38;;;0.30;;
25199;SDS011;33094;48.782;9.162;2023-11-19T08:27:58;0.55;;;0.38;;
25199;SDS011;33094;48.782;9.162;2023-11-19T08:30:24;0.47;;;0.30;;
25199;SDS011;33094;48.782;9.162;2023-11-19T08:32:50;2.25;;;0.28;;
25199;SDS011;33094;48.782;9.162;2023-11-19T08:35:15;0.20;;;0.20;;
25199;SDS011;33094;48.782;9.162;2023-11-19T08:37:41;0.40;;;0.30;;
25199;SDS011;33094;48.782;9.162;2023-11-19T08:40:12;0.35;;;0.30;;
25199;SDS011;33094;48.782;9.162;2023-11-19T08:42:40;0.30;;;0.30;;
25199;SDS011;33094;48.782;9.162;2023-11-19T08:45:06;0.45;;;0.17;;
25199;SDS011;33094;48.782;9.162;2023-11-19T08:47:35;0.30;;;0.22;;
25199;SDS011;33094;48.782;9.162;2023-11-19T08:50:01;0.45;;;0.45;;
25199;SDS011;33094;48.782;9.162;2023-11-19T08:52:26;0.20;;;0.20;;
25199;SDS011;33094;48.782;9.162;2023-11-19T08:54:52;0.77;;;0.32;;
25199;SDS011;33094;48.782;9.162;2023-11-19T08:57:21;0.85;;;0.32;;
25199;SDS011;33094;48.782;9.162;2023-11-19T08:59:46;0.30;;;0.20;;
25199;SDS011;33094;48.782;9.162;2023-11-19T09:02:12;0.47;;;0.25;;
25199;SDS011;33094;48.782;9.162;2023-11-19T09:04:38;0.22;;;0.22;;
25199;SDS011;33094;48.782;9.162;2023-11-19T09:07:03;0.20;;;0.20;;
25199;SDS011;33094;48.782;9.162;2023-11-19T09:09:29;0.95;;;0.50;;
25199;SDS011;33094;48.782;9.162;2023-11-19T09:11:55;0.30;;;0.30;;
25199;SDS011;33094;48.782;9.162;2023-11-19T09:14:21;0.52;;;0.38;;
25199;SDS011;33094;48.782;9.162;2023-11-19T09:16:51;0.50;;;0.32;;
25199;SDS011;33094;48.782;9.162;2023-11-19T09:19:17;0.63;;;0.40;;
25199;SDS011;33094;48.782;9.162;2023-11-19T09:21:43;0.40;;;0.30;;
25199;SDS011;33094;48.782;9.162;2023-11-19T09:24:09;0.70;;;0.50;;
25199;SDS011;33094;48.782;9.162;2023-11-19T09:26:34;0.70;;;0.45;;
25199;SDS011;33094;48.782;9.162;2023-11-19T09:29:01;1.30;;;0.43;;
25199;SDS011;33094;48.782;9.162;2023-11-19T09:31:27;0.47;;;0.28;;
25199;SDS011;33094;48.782;9.162;2023-11-19T09:33:52;0.43;;;0.30;;
25199;SDS011;33094;48.782;9.162;2023-11-19T09:36:18;1.35;;;0.30;;
25199;SDS011;33094;48.782;9.162;2023-11-19T09:38:44;1.20;;;0.30;;
25199;SDS011;33094;48.782;9.162;2023-11-19T09:41:10;0.63;;;0.50;;
25199;SDS011;33094;48.782;9.162;2023-11-19T09:43:42;0.40;;;0.38;;
25199;SDS011;33094;48.782;9.162;2023-11-19T09:46:12;0.55;;;0.40;;
25199;SDS011;33094;48.782;9.162;2023-11-19T09:48:40;0.47;;;0.38;;
25199;SDS011;33094;48.782;9.162;2023-11-19T09:51:10;1.33;;;0.43;;
25199;SDS011;33094;48.782;9.162;2023-11-19T09:53:37;0.28;;;0.28;;
25199;SDS011;33094;48.782;9.162;2023-11-19T09:56:03;0.20;;;0.20;;
25199;SDS011;33094;48.782;9.162;2023-11-19T09:58:30;1.23;;;0.50;;
25199;SDS011;33094;48.782;9.162;2023-11-19T10:00:57;0.73;;;0.40;;
25199;SDS011;33094;48.782;9.162;2023-11-19T10:03:28;0.60;;;0.30;;
25199;SDS011;33094;48.782;9.162;2023-11-19T10:05:58;1.02;;;0.40;;
25199;SDS011;33094;48.782;9.162;2023-11-19T10:08:25;0.20;;;0.20;;
25199;SDS011;33094;48.782;9.162;2023-11-19T10:10:51;0.40;;;0.40;;
25199;SDS011;33094;48.782;9.162;2023-11-19T10:13:17;0.50;;;0.30;;
25199;SDS011;33094;48.782;9.162;2023-11-19T10:15:43;0.73;;;0.38;;
25199;SDS011;33094;48.782;9.162;2023-11-19T10:18:13;0.93;;;0.33;;
25199;SDS011;33094;48.782;9.162;2023-11-19T10:20:40;0.30;;;0.30;;
25199;SDS011;33094;48.782;9.162;2023-11-19T10:25:34;0.47;;;0.30;;
25199;SDS011;33094;48.782;9.162;2023-11-19T10:28:00;1.35;;;0.30;;
25199;SDS011;33094;48.782;9.162;2023-11-19T10:30:26;0.85;;;0.30;;
25199;SDS011;33094;48.782;9.162;2023-11-19T10:35:29;0.35;;;0.35;;
25199;SDS011;33094;48.782;9.162;2023-11-19T10:37:55;0.40;;;0.30;;
25199;SDS011;33094;48.782;9.162;2023-11-19T10:40:21;0.40;;;0.38;;
25199;SDS011;33094;48.782;9.162;2023-11-19T10:42:46;1.15;;;0.47;;
25199;SDS011;33094;48.782;9.162;2023-11-19T10:45:21;0.68;;;0.25;;
25199;SDS011;33094;48.782;9.162;2023-11-19T10:47:48;0.20;;;0.20;;
25199;SDS011;33094;48.782;9.162;2023-11-19T10:50:16;2.92;;;0.65;;
25199;SDS011;33094;48.782;9.162;2023-11-19T10:52:42;0.43;;;0.35;;
25199;SDS011;33094;48.782;9.162;2023-11-19T10:55:09;1.65;;;0.65;;
25199;SDS011;33094;48.782;9.162;2023-11-19T10:57:39;0.60;;;0.40;;
25199;SDS011;33094;48.782;9.162;2023-11-19T11:00:11;0.20;;;0.20;;
25199;SDS011;33094;48.782;9.162;2023-11-19T11:02:43;5.63;;;0.75;;
25199;SDS011;33094;48.782;9.162;2023-11-19T11:05:12;1.23;;;0.40;;
25199;SDS011;33094;48.782;9.162;2023-11-19T11:07:39;0.30;;;0.30;;
25199;SDS011;33094;48.782;9.162;2023-11-19T11:10:06;0.55;;;0.40;;
25199;SDS011;33094;48.782;9.162;2023-11-19T11:12:35;0.20;;;0.20;;
25199;SDS011;33094;48.782;9.162;2023-11-19T11:15:06;0.43;;;0.17;;
25199;SDS011;33094;48.782;9.162;2023-11-19T11:17:33;0.63;;;0.30;;
25199;SDS011;33094;48.782;9.162;2023-11-19T11:19:59;0.20;;;0.20;;
25199;SDS011;33094;48.782;9.162;2023-11-19T11:22:25;0.40;;;0.40;;
25199;SDS011;33094;48.782;9.162;2023-11-19T11:25:06;1.42;;;0.57;;
25199;SDS011;33094;48.782;9.162;2023-11-19T11:30:35;0.20;;;0.20;;
25199;SDS011;33094;48.782;9.162;2023-11-19T11:38:30;4.30;;;0.50;;
25199;SDS011;33094;48.782;9.162;2023-11-19T11:43:53;0.10;;;0.10;;
25199;SDS011;33094;48.782;9.162;2023-11-19T11:49:00;0.47;;;0.30;;
25199;SDS011;33094;48.782;9.162;2023-11-19T11:54:11;0.98;;;0.30;;
25199;SDS011;33094;48.782;9.162;2023-11-19T11:59:31;0.98;;;0.30;;
25199;SDS011;33094;48.782;9.162;2023-11-19T12:02:02;1.75;;;0.50;;
25199;SDS011;33094;48.782;9.162;2023-11-19T12:04:28;0.33;;;0.30;;
25199;SDS011;33094;48.782;9.162;2023-11-19T12:07:07;0.70;;;0.47;;
25199;SDS011;33094;48.782;9.162;2023-11-19T12:09:39;0.50;;;0.40;;
25199;SDS011;33094;48.782;9.162;2023-11-19T12:12:23;3.67;;;0.85;;
25199;SDS011;33094;48.782;9.162;2023-11-19T12:23:00;1.25;;;0.30;;
25199;SDS011;33094;48.782;9.162;2023-11-19T12:25:30;0.98;;;0.38;;
25199;SDS011;33094;48.782;9.162;2023-11-19T12:28:13;2.40;;;0.50;;
25199;SDS011;33094;48.782;9.162;2023-11-19T12:30:42;0.47;;;0.20;;
25199;SDS011;33094;48.782;9.162;2023-11-19T12:33:11;0.50;;;0.50;;
25199;SDS011;33094;48.782;9.162;2023-11-19T12:35:41;2.70;;;0.40;;
25199;SDS011;33094;48.782;9.162;2023-11-19T12:38:07;0.50;;;0.30;;
25199;SDS011;33094;48.782;9.162;2023-11-19T12:40:36;2.70;;;0.70;;
25199;SDS011;33094;48.782;9.162;2023-11-19T12:43:02;0.30;;;0.20;;
25199;SDS011;33094;48.782;9.162;2023-11-19T12:45:36;0.10;;;0.10;;
25199;SDS011;33094;48.782;9.162;2023-11-19T12:48:07;0.40;;;0.40;;
25199;SDS011;33094;48.782;9.162;2023-11-19T12:50:55;0.50;;;0.38;;
25199;SDS011;33094;48.782;9.162;2023-11-19T12:53:26;1.67;;;0.40;;
25199;SDS011;33094;48.782;9.162;2023-11-19T12:56:35;0.50;;;0.40;;
25199;SDS011;33094;48.782;9.162;2023-11-19T13:01:53;1.88;;;0.70;;
25199;SDS011;33094;48.782;9.162;2023-11-19T13:06:58;0.70;;;0.43;;
25199;SDS011;33094;48.782;9.162;2023-11-19T13:12:34;0.52;;;0.35;;
25199;SDS011;33094;48.782;9.162;2023-11-19T13:17:53;1.38;;;0.43;;
25199;SDS011;33094;48.782;9.162;2023-11-19T13:20:23;0.98;;;0.32;;
25199;SDS011;33094;48.782;9.162;2023-11-19T13:23:01;0.80;;;0.30;;
25199;SDS011;33094;48.782;9.162;2023-11-19T13:25:29;1.52;;;0.20;;
25199;SDS011;33094;48.782;9.162;2023-11-19T13:27:55;0.57;;;0.20;;
25199;SDS011;33094;48.782;9.162;2023-11-19T13:30:21;1.00;;;0.30;;
25199;SDS011;33094;48.782;9.162;2023-11-19T13:32:48;0.30;;;0.20;;
25199;SDS011;33094;48.782;9.162;2023-11-19T13:35:15;0.38;;;0.30;;
25199;SDS011;33094;48.782;9.162;2023-11-19T13:40:08;6.57;;;0.70;;
25199;SDS011;33094;48.782;9.162;2023-11-19T13:42:40;1.92;;;1.05;;
25199;SDS011;33094;48.782;9.162;2023-11-19T13:45:08;0.80;;;0.22;;
25199;SDS011;33094;48.782;9.162;2023-11-19T13:47:37;0.45;;;0.30;;
25199;SDS011;33094;48.782;9.162;2023-11-19T13:50:06;0.50;;;0.43;;
25199;SDS011;33094;48.782;9.162;2023-11-19T13:52:34;0.90;;;0.73;;
25199;SDS011;33094;48.782;9.162;2023-11-19T13:55:09;0.47;;;0.32;;
25199;SDS011;33094;48.782;9.162;2023-11-19T13:57:48;1.75;;;0.55;;
25199;SDS011;33094;48.782;9.162;2023-11-19T14:00:14;0.75;;;0.38;;
25199;SDS011;33094;48.782;9.162;2023-11-19T14:02:50;0.82;;;0.30;;
25199;SDS011;33094;48.782;9.162;2023-11-19T14:12:12;0.45;;;0.30;;
25199;SDS011;33094;48.782;9.162;2023-11-19T14:14:39;2.15;;;0.35;;
25199;SDS011;33094;48.782;9.162;2023-11-19T14:17:08;0.30;;;0.30;;
25199;SDS011;33094;48.782;9.162;2023-11-19T14:19:36;1.13;;;0.40;;
25199;SDS011;33094;48.782;9.162;2023-11-19T14:22:04;2.30;;;0.57;;
25199;SDS011;33094;48.782;9.162;2023-11-19T14:24:30;0.93;;;0.40;;
25199;SDS011;33094;48.782;9.162;2023-11-19T14:27:05;2.10;;;0.57;;
25199;SDS011;33094;48.782;9.162;2023-11-19T14:29:30;0.73;;;0.30;;
25199;SDS011;33094;48.782;9.162;2023-11-19T14:31:59;1.25;;;0.47;;
25199;SDS011;33094;48.782;9.162;2023-11-19T14:36:51;1.13;;;0.60;;
25199;SDS011;33094;48.782;9.162;2023-11-19T14:39:18;1.52;;;0.82;;
25199;SDS011;33094;48.782;9.162;2023-11-19T14:41:44;0.40;;;0.40;;
25199;SDS011;33094;48.782;9.162;2023-11-19T14:44:10;1.45;;;0.77;;
25199;SDS011;33094;48.782;9.162;2023-11-19T14:46:36;0.60;;;0.50;;
25199;SDS011;33094;48.782;9.162;2023-11-19T14:49:02;1.88;;;0.75;;
25199;SDS011;33094;48.782;9.162;2023-11-19T14:53:54;0.75;;;0.57;;
25199;SDS011;33094;48.782;9.162;2023-11-19T14:56:20;2.63;;;0.70;;
25199;SDS011;33094;48.782;9.162;2023-11-19T14:58:46;1.50;;;0.60;;
25199;SDS011;33094;48.782;9.162;2023-11-19T15:01:12;0.50;;;0.50;;
25199;SDS011;33094;48.782;9.162;2023-11-19T15:03:38;0.43;;;0.43;;
25199;SDS011;33094;48.782;9.162;2023-11-19T15:06:05;1.17;;;0.30;;
25199;SDS011;33094;48.782;9.162;2023-11-19T15:11:49;2.40;;;0.43;;
25199;SDS011;33094;48.782;9.162;2023-11-19T15:14:16;2.85;;;0.77;;
25199;SDS011;33094;48.782;9.162;2023-11-19T15:16:46;0.60;;;0.60;;
25199;SDS011;33094;48.782;9.162;2023-11-19T15:19:15;1.27;;;0.40;;
25199;SDS011;33094;48.782;9.162;2023-11-19T15:21:41;0.43;;;0.43;;
25199;SDS011;33094;48.782;9.162;2023-11-19T15:24:07;0.35;;;0.35;;
25199;SDS011;33094;48.782;9.162;2023-11-19T15:26:34;2.33;;;0.50;;
25199;SDS011;33094;48.782;9.162;2023-11-19T15:29:03;0.22;;;0.22;;
25199;SDS011;33094;48.782;9.162;2023-11-19T15:31:29;0.90;;;0.30;;
25199;SDS011;33094;48.782;9.162;2023-11-19T15:33:56;1.20;;;0.32;;
25199;SDS011;33094;48.782;9.162;2023-11-19T15:36:22;1.85;;;0.30;;
25199;SDS011;33094;48.782;9.162;2023-11-19T15:38:48;2.92;;;0.93;;
25199;SDS011;33094;48.782;9.162;2023-11-19T15:41:13;1.83;;;0.73;;
25199;SDS011;33094;48.782;9.162;2023-11-19T15:43:39;0.47;;;0.45;;
25199;SDS011;33094;48.782;9.162;2023-11-19T15:46:05;1.95;;;0.40;;
25199;SDS011;33094;48.782;9.162;2023-11-19T15:48:34;0.20;;;0.20;;
25199;SDS011;33094;48.782;9.162;2023-11-19T15:51:00;0.52;;;0.47;;
25199;SDS011;33094;48.782;9.162;2023-11-19T15:53:27;0.85;;;0.60;;
25199;SDS011;33094;48.782;9.162;2023-11-19T15:55:53;1.75;;;0.75;;
25199;SDS011;33094;48.782;9.162;2023-11-19T15:58:21;1.73;;;0.30;;
25199;SDS011;33094;48.782;9.162;2023-11-19T16:00:47;0.98;;;0.40;;